createdAt,value
2024-02-27T00:01:26.453Z,58.30
2024-02-27T00:04:02.996Z,60.40
2024-02-27T00:06:32.558Z,65.50
2024-02-27T00:09:01.739Z,65.10
2024-02-27T00:11:31.749Z,64.00
2024-02-27T00:14:06.357Z,64.90
2024-02-27T00:16:40.990Z,66.50
2024-02-27T00:19:11.009Z,64.40
2024-02-27T00:21:48.589Z,63.70
2024-02-27T00:24:20.073Z,67.10
2024-02-27T00:26:52.333Z,62.70
2024-02-27T00:29:27.201Z,61.90
2024-02-27T00:31:58.184Z,53.30
2024-02-27T00:34:30.345Z,54.60
2024-02-27T00:37:02.806Z,51.00
2024-02-27T00:39:34.836Z,55.60
2024-02-27T00:42:10.580Z,58.50
2024-02-27T00:45:01.500Z,61.20
2024-02-27T00:47:54.275Z,61.10
2024-02-27T00:50:29.304Z,57.50
2024-02-27T00:53:01.818Z,64.20
2024-02-27T00:55:34.252Z,62.50
2024-02-27T00:58:19.936Z,66.40
2024-02-27T01:00:49.310Z,62.20
2024-02-27T01:03:23.928Z,66.30
2024-02-27T01:05:53.124Z,67.10
2024-02-27T01:08:26.971Z,65.60
2024-02-27T01:10:58.013Z,64.50
2024-02-27T01:13:29.452Z,61.10
2024-02-27T01:16:08.830Z,65.60
2024-02-27T01:18:37.997Z,60.70
2024-02-27T01:21:10.165Z,59.80
2024-02-27T01:23:41.819Z,64.20
2024-02-27T01:26:13.435Z,62.60
2024-02-27T01:28:48.521Z,60.70
2024-02-27T01:31:17.512Z,59.60
2024-02-27T01:33:52.732Z,65.00
2024-02-27T01:36:24.350Z,66.50
2024-02-27T01:38:55.505Z,63.10
2024-02-27T01:41:24.529Z,63.50
2024-02-27T01:44:03.386Z,57.50
2024-02-27T01:46:34.775Z,55.30
2024-02-27T01:49:04.426Z,59.80
2024-02-27T01:51:33.492Z,61.50
2024-02-27T01:54:12.078Z,52.40
2024-02-27T01:56:46.060Z,61.00
2024-02-27T01:59:27.399Z,56.50
2024-02-27T02:02:04.491Z,61.00
2024-02-27T02:04:37.058Z,52.10
2024-02-27T02:07:09.394Z,57.90
2024-02-27T02:09:41.332Z,56.70
2024-02-27T02:12:17.010Z,56.70
2024-02-27T02:14:50.025Z,58.60
2024-02-27T02:17:21.705Z,57.30
2024-02-27T02:19:50.608Z,57.10
2024-02-27T02:22:25.237Z,57.30
2024-02-27T02:25:03.944Z,62.30
2024-02-27T02:27:39.716Z,61.30
2024-02-27T02:30:12.807Z,65.90
2024-02-27T02:32:51.511Z,61.90
2024-02-27T02:35:25.078Z,60.60
2024-02-27T02:38:05.543Z,58.90
2024-02-27T02:40:36.996Z,51.80
2024-02-27T02:43:12.317Z,57.80
2024-02-27T02:45:43.868Z,62.00
2024-02-27T02:48:18.910Z,60.00
2024-02-27T02:50:53.443Z,57.70
2024-02-27T02:53:28.405Z,56.30
2024-02-27T02:55:59.860Z,57.20
2024-02-27T02:58:31.702Z,55.90
2024-02-27T03:01:06.758Z,56.50
2024-02-27T03:03:35.586Z,56.30
2024-02-27T03:06:17.593Z,57.30
2024-02-27T03:08:49.683Z,58.80
2024-02-27T03:11:24.703Z,52.70
2024-02-27T03:13:56.468Z,49.30
2024-02-27T03:16:28.739Z,47.20
2024-02-27T03:19:00.343Z,52.50
2024-02-27T03:21:36.004Z,49.20
2024-02-27T03:24:11.168Z,47.20
2024-02-27T03:26:42.635Z,47.30
2024-02-27T03:29:22.905Z,42.80
2024-02-27T03:31:55.261Z,46.80
2024-02-27T03:34:27.551Z,45.80
2024-02-27T03:36:59.607Z,44.80
2024-02-27T03:39:31.644Z,47.40
2024-02-27T03:42:03.479Z,47.10
2024-02-27T03:44:32.942Z,48.30
2024-02-27T03:47:04.446Z,45.80
2024-02-27T03:49:38.226Z,46.80
2024-02-27T03:52:07.379Z,46.20
2024-02-27T03:54:43.037Z,43.30
2024-02-27T03:57:12.201Z,45.80
2024-02-27T03:59:41.145Z,51.30
2024-02-27T04:02:12.905Z,45.90
2024-02-27T04:04:45.455Z,53.20
2024-02-27T04:07:34.639Z,48.40
2024-02-27T04:10:15.585Z,50.00
2024-02-27T04:12:47.438Z,47.70
2024-02-27T04:15:36.270Z,43.80
2024-02-27T04:18:09.129Z,47.50
2024-02-27T04:20:38.102Z,43.60
2024-02-27T04:23:09.745Z,44.20
2024-02-27T04:25:41.717Z,43.70
2024-02-27T04:28:10.496Z,46.30
2024-02-27T04:30:39.741Z,45.10
2024-02-27T04:33:08.908Z,42.70
2024-02-27T04:35:50.165Z,44.80
2024-02-27T04:38:19.044Z,43.80
2024-02-27T04:40:48.215Z,41.00
2024-02-27T04:43:25.103Z,37.50
2024-02-27T04:45:54.019Z,41.30
2024-02-27T04:48:28.121Z,43.10
2024-02-27T04:50:57.002Z,45.90
2024-02-27T04:53:26.105Z,45.50
2024-02-27T04:55:57.884Z,46.30
2024-02-27T04:58:29.004Z,41.00
2024-02-27T05:01:00.361Z,40.50
2024-02-27T05:03:51.018Z,39.50
2024-02-27T05:06:20.463Z,38.30
2024-02-27T05:08:55.602Z,35.60
2024-02-27T05:11:24.331Z,38.70
2024-02-27T05:13:56.252Z,39.60
2024-02-27T05:16:28.115Z,40.30
2024-02-27T05:18:57.014Z,38.80
2024-02-27T05:21:29.676Z,41.70
2024-02-27T05:24:01.538Z,42.20
2024-02-27T05:26:30.521Z,41.10
2024-02-27T05:29:03.116Z,42.10
2024-02-27T05:31:35.689Z,39.70
2024-02-27T05:34:09.035Z,38.60
2024-02-27T05:36:38.172Z,41.50
2024-02-27T05:39:07.333Z,38.30
2024-02-27T05:41:42.692Z,40.70
2024-02-27T05:44:22.044Z,41.70
2024-02-27T05:46:50.757Z,40.20
2024-02-27T05:49:20.106Z,36.70
2024-02-27T05:51:52.116Z,36.80
2024-02-27T05:54:21.736Z,37.80
2024-02-27T05:56:50.403Z,34.30
2024-02-27T05:59:22.160Z,38.00
2024-02-27T06:01:53.407Z,37.00
2024-02-27T06:04:22.250Z,36.20
2024-02-27T06:06:54.373Z,39.30
2024-02-27T06:09:30.284Z,34.20
2024-02-27T06:11:59.758Z,33.30
2024-02-27T06:14:39.995Z,36.50
2024-02-27T06:17:09.974Z,35.40
2024-02-27T06:19:46.902Z,32.20
2024-02-27T06:22:18.652Z,33.90
2024-02-27T06:24:59.920Z,35.20
2024-02-27T06:27:33.044Z,36.50
2024-02-27T06:30:12.399Z,36.90
2024-02-27T06:32:49.224Z,33.80
2024-02-27T06:35:22.677Z,34.80
2024-02-27T06:38:06.093Z,33.30
2024-02-27T06:40:45.069Z,37.10
2024-02-27T06:43:23.852Z,32.50
2024-02-27T06:45:58.321Z,37.60
2024-02-27T06:48:37.984Z,39.70
2024-02-27T06:51:11.521Z,38.20
2024-02-27T06:53:43.435Z,39.50
2024-02-27T06:56:13.555Z,39.20
2024-02-27T06:58:46.457Z,35.10
2024-02-27T07:01:27.763Z,37.00
2024-02-27T07:04:00.207Z,41.50
2024-02-27T07:06:32.555Z,39.40
2024-02-27T07:09:02.198Z,36.20
2024-02-27T07:11:33.323Z,35.80
2024-02-27T07:14:03.220Z,39.20
2024-02-27T07:16:32.433Z,41.50
2024-02-27T07:19:02.400Z,42.90
2024-02-27T07:21:43.955Z,35.20
2024-02-27T07:24:13.513Z,37.50
2024-02-27T07:26:54.318Z,32.50
2024-02-27T07:29:23.299Z,39.20
2024-02-27T07:31:55.273Z,37.00
2024-02-27T07:34:32.999Z,34.30
2024-02-27T07:37:08.066Z,35.20
2024-02-27T07:39:40.057Z,39.40
2024-02-27T07:42:09.679Z,38.50
2024-02-27T07:44:47.691Z,33.80
2024-02-27T07:47:19.539Z,39.00
2024-02-27T07:49:51.417Z,42.90
2024-02-27T07:52:22.063Z,38.30
2024-02-27T07:54:54.079Z,33.80
2024-02-27T07:57:26.782Z,42.00
2024-02-27T08:00:01.712Z,37.90
2024-02-27T08:02:40.136Z,39.40
2024-02-27T08:05:10.348Z,39.30
2024-02-27T08:07:46.502Z,44.30
2024-02-27T08:10:18.398Z,37.10
2024-02-27T08:12:49.840Z,43.60
2024-02-27T08:15:19.611Z,43.80
2024-02-27T08:17:51.918Z,39.90
2024-02-27T08:20:21.802Z,51.70
2024-02-27T08:22:52.376Z,45.50
2024-02-27T08:25:34.544Z,39.20
2024-02-27T08:28:15.914Z,30.50
2024-02-27T08:30:48.255Z,43.10
2024-02-27T08:33:21.103Z,42.00
2024-02-27T08:35:57.411Z,34.60
2024-02-27T08:38:32.796Z,43.60
2024-02-27T08:41:05.441Z,51.30
2024-02-27T08:43:37.648Z,45.70
2024-02-27T08:46:18.098Z,38.10
2024-02-27T08:48:55.961Z,38.20
2024-02-27T08:51:25.169Z,34.60
2024-02-27T08:53:54.911Z,37.70
2024-02-27T08:56:26.671Z,40.40
2024-02-27T08:58:59.143Z,37.00
2024-02-27T09:01:31.537Z,38.50
2024-02-27T09:04:02.414Z,39.20
2024-02-27T09:06:32.285Z,41.70
2024-02-27T09:09:13.911Z,32.80
2024-02-27T09:11:49.161Z,45.30
2024-02-27T09:14:27.377Z,43.20
2024-02-27T09:16:57.122Z,51.20
2024-02-27T09:19:30.174Z,39.70
2024-02-27T09:22:02.004Z,41.40
2024-02-27T09:24:38.766Z,49.30
2024-02-27T09:27:11.184Z,48.00
2024-02-27T09:29:56.582Z,40.00
2024-02-27T09:32:29.070Z,23.80
2024-02-27T09:35:00.924Z,36.60
2024-02-27T09:37:33.285Z,44.50
2024-02-27T09:40:05.781Z,37.60
2024-02-27T09:42:36.831Z,32.30
2024-02-27T09:45:12.911Z,43.70
2024-02-27T09:47:47.803Z,31.30
2024-02-27T09:50:20.957Z,35.30
2024-02-27T09:52:55.408Z,46.70
2024-02-27T09:55:29.434Z,30.00
2024-02-27T09:58:05.252Z,41.00
2024-02-27T10:00:35.117Z,36.90
2024-02-27T10:03:05.701Z,35.90
2024-02-27T10:05:39.891Z,47.70
2024-02-27T10:08:24.339Z,39.40
2024-02-27T10:10:59.780Z,47.30
2024-02-27T10:13:36.093Z,35.90
2024-02-27T10:16:11.503Z,42.40
2024-02-27T10:18:43.033Z,43.00
2024-02-27T10:21:12.210Z,49.50
2024-02-27T10:23:40.992Z,47.40
2024-02-27T10:26:13.884Z,43.90
2024-02-27T10:28:45.412Z,48.50
2024-02-27T10:31:17.212Z,37.20
2024-02-27T10:33:47.450Z,46.80
2024-02-27T10:36:19.497Z,39.70
2024-02-27T10:38:48.453Z,41.00
2024-02-27T10:41:17.153Z,46.10
2024-02-27T10:43:45.945Z,48.30
2024-02-27T10:46:17.873Z,47.80
2024-02-27T10:48:47.151Z,26.80
2024-02-27T10:51:16.576Z,46.00
2024-02-27T10:53:49.782Z,49.50
2024-02-27T10:56:19.597Z,35.20
2024-02-27T10:58:50.326Z,45.60
2024-02-27T11:01:22.508Z,45.00
2024-02-27T11:03:55.132Z,50.80
2024-02-27T11:06:27.386Z,48.00
2024-02-27T11:09:11.489Z,36.60
2024-02-27T11:11:44.168Z,41.60
2024-02-27T11:14:16.561Z,46.80
2024-02-27T11:16:51.468Z,46.90
2024-02-27T11:19:26.171Z,51.10
2024-02-27T11:21:55.957Z,50.10
2024-02-27T11:24:24.739Z,36.40
2024-02-27T11:26:54.444Z,52.60
2024-02-27T11:29:23.613Z,52.00
2024-02-27T11:31:53.378Z,53.40
2024-02-27T11:34:32.739Z,45.10
2024-02-27T11:37:14.689Z,51.20
2024-02-27T11:39:47.915Z,50.20
2024-02-27T11:42:44.499Z,52.80
2024-02-27T11:45:15.813Z,54.00
2024-02-27T11:47:53.668Z,52.60
2024-02-27T11:50:41.489Z,50.90
2024-02-27T11:53:23.206Z,48.10
2024-02-27T11:55:59.649Z,57.20
2024-02-27T11:58:31.521Z,53.80
2024-02-27T12:01:07.142Z,57.00
2024-02-27T12:03:42.503Z,36.70
2024-02-27T12:06:14.412Z,48.80
2024-02-27T12:08:54.312Z,56.80
2024-02-27T12:11:25.544Z,57.60
2024-02-27T12:13:54.432Z,50.80
2024-02-27T12:16:27.881Z,53.40
2024-02-27T12:19:02.957Z,50.00
2024-02-27T12:21:38.419Z,47.40
2024-02-27T12:24:18.906Z,48.60
2024-02-27T12:26:51.269Z,48.20
2024-02-27T12:29:20.658Z,44.30
2024-02-27T12:31:52.727Z,45.20
2024-02-27T12:34:30.799Z,45.30
2024-02-27T12:37:05.878Z,30.00
2024-02-27T12:39:38.880Z,46.80
2024-02-27T12:42:09.081Z,45.30
2024-02-27T12:44:41.323Z,52.40
2024-02-27T12:47:17.102Z,54.70
2024-02-27T12:49:49.021Z,39.80
2024-02-27T12:52:21.501Z,36.50
2024-02-27T12:54:50.809Z,42.90
2024-02-27T12:57:20.612Z,46.10
2024-02-27T12:59:51.442Z,52.40
2024-02-27T13:02:28.443Z,50.90
2024-02-27T13:05:00.295Z,47.90
2024-02-27T13:07:41.506Z,54.10
2024-02-27T13:10:12.440Z,56.80
2024-02-27T13:12:41.071Z,49.40
2024-02-27T13:15:16.213Z,46.00
2024-02-27T13:17:48.017Z,53.00
2024-02-27T13:20:26.855Z,47.20
2024-02-27T13:23:00.452Z,51.10
2024-02-27T13:25:36.668Z,50.30
2024-02-27T13:28:06.520Z,54.00
2024-02-27T13:30:43.401Z,37.60
2024-02-27T13:33:13.758Z,51.30
2024-02-27T13:35:55.451Z,36.40
2024-02-27T13:38:25.247Z,44.00
2024-02-27T13:40:55.789Z,46.00
2024-02-27T13:43:25.092Z,42.90
2024-02-27T13:45:59.828Z,46.60
2024-02-27T13:48:31.554Z,53.00
2024-02-27T13:51:04.499Z,41.60
2024-02-27T13:53:38.844Z,50.60
2024-02-27T13:56:09.258Z,47.20
2024-02-27T13:58:38.487Z,51.70
2024-02-27T14:01:09.504Z,41.30
2024-02-27T14:03:40.804Z,43.20
2024-02-27T14:06:10.312Z,49.20
2024-02-27T14:08:40.915Z,31.80
2024-02-27T14:11:10.342Z,43.20
2024-02-27T14:13:41.752Z,46.20
2024-02-27T14:16:11.975Z,36.60
2024-02-27T14:18:41.286Z,46.40
2024-02-27T14:21:10.701Z,51.10
2024-02-27T14:23:39.974Z,48.30
2024-02-27T14:26:09.382Z,40.00
2024-02-27T14:28:38.681Z,32.60
2024-02-27T14:31:08.080Z,44.80
2024-02-27T14:33:37.149Z,39.10
2024-02-27T14:36:06.663Z,50.50
2024-02-27T14:38:40.663Z,54.90
2024-02-27T14:41:09.987Z,52.90
2024-02-27T14:43:39.930Z,50.70
2024-02-27T14:46:09.540Z,50.80
2024-02-27T14:48:39.217Z,51.60
2024-02-27T14:51:10.019Z,52.80
2024-02-27T14:53:39.470Z,54.70
2024-02-27T14:56:09.190Z,49.80
2024-02-27T14:58:38.885Z,47.10
2024-02-27T15:01:13.335Z,55.30
2024-02-27T15:03:45.986Z,52.20
2024-02-27T15:06:17.499Z,30.20
2024-02-27T15:08:48.700Z,50.80
2024-02-27T15:11:23.558Z,48.80
2024-02-27T15:13:52.909Z,39.40
2024-02-27T15:16:33.472Z,50.10
2024-02-27T15:19:05.194Z,46.10
2024-02-27T15:21:37.548Z,50.00
2024-02-27T15:24:13.934Z,49.90
2024-02-27T15:26:42.793Z,49.90
2024-02-27T15:29:13.010Z,47.80
2024-02-27T15:31:44.880Z,49.80
2024-02-27T15:34:21.967Z,47.40
2024-02-27T15:36:54.660Z,49.20
2024-02-27T15:39:30.467Z,44.30
2024-02-27T15:41:59.611Z,44.50
2024-02-27T15:44:29.542Z,39.30
2024-02-27T15:46:59.643Z,43.30
2024-02-27T15:49:29.084Z,41.80
2024-02-27T15:51:58.344Z,43.50
2024-02-27T15:54:27.621Z,40.30
2024-02-27T15:56:57.493Z,44.30
2024-02-27T15:59:28.006Z,36.20
2024-02-27T16:02:01.855Z,46.20
2024-02-27T16:04:55.179Z,40.70
2024-02-27T16:07:35.187Z,45.90
2024-02-27T16:10:05.499Z,43.30
2024-02-27T16:12:36.914Z,38.20
2024-02-27T16:15:08.976Z,42.90
2024-02-27T16:17:38.109Z,44.70
2024-02-27T16:20:09.282Z,42.90
2024-02-27T16:22:41.722Z,41.40
2024-02-27T16:25:10.622Z,39.40
2024-02-27T16:27:43.125Z,43.30
2024-02-27T16:30:12.970Z,44.30
2024-02-27T16:32:46.951Z,47.80
2024-02-27T16:35:18.277Z,48.40
2024-02-27T16:37:50.227Z,43.80
2024-02-27T16:40:18.994Z,44.60
2024-02-27T16:42:48.981Z,46.20
2024-02-27T16:45:20.572Z,47.70
2024-02-27T16:47:55.605Z,46.40
2024-02-27T16:50:27.674Z,47.80
2024-02-27T16:53:00.559Z,44.40
2024-02-27T16:55:29.794Z,39.30
2024-02-27T16:58:00.634Z,45.90
2024-02-27T17:00:30.247Z,46.10
2024-02-27T17:03:04.272Z,44.80
2024-02-27T17:05:34.197Z,46.10
2024-02-27T17:08:03.006Z,42.60
2024-02-27T17:10:32.417Z,46.30
2024-02-27T17:13:03.992Z,47.30
2024-02-27T17:15:33.227Z,47.70
2024-02-27T17:18:02.117Z,48.50
2024-02-27T17:20:31.058Z,48.50
2024-02-27T17:23:01.448Z,51.20
2024-02-27T17:25:30.814Z,55.40
2024-02-27T17:28:00.320Z,51.20
2024-02-27T17:30:28.883Z,48.60
2024-02-27T17:32:57.943Z,49.00
2024-02-27T17:35:27.166Z,50.00
2024-02-27T17:37:56.170Z,50.30
2024-02-27T17:40:24.943Z,52.70
2024-02-27T17:42:53.983Z,58.80
2024-02-27T17:45:23.766Z,83.60
2024-02-27T17:47:52.703Z,66.80
2024-02-27T17:50:21.948Z,75.30
2024-02-27T17:52:50.830Z,125.50
2024-02-27T17:55:19.517Z,108.20
2024-02-27T17:57:51.706Z,118.10
2024-02-27T18:00:20.999Z,122.00
2024-02-27T18:02:49.769Z,128.80
2024-02-27T18:05:20.114Z,112.90
2024-02-27T18:07:51.650Z,100.20
2024-02-27T18:10:21.170Z,150.70
2024-02-27T18:12:49.916Z,179.20
2024-02-27T18:15:21.930Z,190.30
2024-02-27T18:17:51.076Z,116.90
2024-02-27T18:20:20.085Z,66.60
2024-02-27T18:22:49.340Z,59.60
2024-02-27T18:25:18.305Z,61.60
2024-02-27T18:27:47.576Z,60.90
2024-02-27T18:30:20.543Z,57.40
2024-02-27T18:32:50.751Z,65.80
2024-02-27T18:35:20.042Z,62.50
2024-02-27T18:37:49.490Z,55.00
2024-02-27T18:40:22.491Z,49.60
2024-02-27T18:42:52.723Z,52.40
2024-02-27T18:45:48.094Z,50.50
2024-02-27T18:48:18.514Z,50.30
2024-02-27T18:50:49.101Z,45.70
2024-02-27T18:53:18.610Z,48.60
2024-02-27T18:55:49.235Z,47.90
2024-02-27T18:58:18.672Z,50.00
2024-02-27T19:00:48.967Z,46.10
2024-02-27T19:03:18.958Z,47.70
2024-02-27T19:05:48.274Z,48.30
2024-02-27T19:08:17.901Z,48.40
2024-02-27T19:10:48.977Z,52.90
2024-02-27T19:13:24.474Z,47.90
2024-02-27T19:16:04.842Z,47.80
2024-02-27T19:18:38.828Z,50.40
2024-02-27T19:21:09.939Z,53.60
2024-02-27T19:23:43.152Z,52.00
2024-02-27T19:26:17.612Z,57.50
2024-02-27T19:28:54.430Z,53.20
2024-02-27T19:31:26.932Z,58.20
2024-02-27T19:33:59.637Z,58.90
2024-02-27T19:36:41.056Z,55.20
2024-02-27T19:39:16.115Z,54.90
2024-02-27T19:41:57.586Z,56.70
2024-02-27T19:44:34.732Z,54.90
2024-02-27T19:47:07.856Z,53.90
2024-02-27T19:49:43.657Z,52.10
2024-02-27T19:52:15.953Z,55.10
2024-02-27T19:54:48.722Z,52.80
2024-02-27T19:57:23.676Z,53.40
2024-02-27T19:59:53.855Z,55.70
2024-02-27T20:02:23.188Z,55.50
2024-02-27T20:04:56.027Z,54.30
2024-02-27T20:07:26.150Z,59.80
2024-02-27T20:09:55.764Z,63.00
2024-02-27T20:12:26.000Z,50.20
2024-02-27T20:14:56.650Z,56.20
2024-02-27T20:17:29.298Z,58.90
2024-02-27T20:19:59.193Z,56.10
2024-02-27T20:22:30.345Z,57.00
2024-02-27T20:24:59.566Z,57.10
2024-02-27T20:27:29.568Z,57.20
2024-02-27T20:30:00.502Z,60.30
2024-02-27T20:32:30.122Z,66.30
2024-02-27T20:35:02.475Z,62.90
2024-02-27T20:37:32.214Z,62.20
2024-02-27T20:40:02.801Z,63.20
2024-02-27T20:42:35.099Z,58.50
2024-02-27T20:45:09.316Z,57.60
2024-02-27T20:47:39.575Z,63.40
2024-02-27T20:50:13.012Z,59.40
2024-02-27T20:52:43.362Z,63.30
2024-02-27T20:55:12.680Z,59.30
2024-02-27T20:57:42.260Z,62.30
2024-02-27T21:00:13.246Z,62.60
2024-02-27T21:02:43.061Z,62.60
2024-02-27T21:05:12.867Z,63.60
2024-02-27T21:07:42.355Z,60.80
2024-02-27T21:10:15.759Z,64.80
2024-02-27T21:12:48.083Z,63.80
2024-02-27T21:15:17.593Z,60.20
2024-02-27T21:17:47.606Z,59.90
2024-02-27T21:20:16.449Z,57.20
2024-02-27T21:22:46.025Z,57.00
2024-02-27T21:25:15.965Z,57.70
2024-02-27T21:27:49.997Z,53.90
2024-02-27T21:30:19.723Z,53.00
2024-02-27T21:32:49.118Z,57.30
2024-02-27T21:35:18.491Z,54.80
2024-02-27T21:37:50.184Z,54.90
2024-02-27T21:40:19.231Z,56.60
2024-02-27T21:42:48.176Z,54.00
2024-02-27T21:45:18.156Z,55.70
2024-02-27T21:47:46.961Z,58.80
2024-02-27T21:50:16.544Z,53.90
2024-02-27T21:52:45.349Z,54.00
2024-02-27T21:55:14.845Z,53.40
2024-02-27T21:57:44.712Z,52.00
2024-02-27T22:00:15.200Z,55.00
2024-02-27T22:02:44.378Z,53.00
2024-02-27T22:05:13.382Z,52.40
2024-02-27T22:07:42.568Z,51.70
2024-02-27T22:10:11.668Z,49.10
2024-02-27T22:12:40.423Z,51.10
2024-02-27T22:15:09.810Z,52.30
2024-02-27T22:17:39.187Z,51.30
2024-02-27T22:20:08.545Z,54.10
2024-02-27T22:22:37.963Z,51.50
2024-02-27T22:25:07.535Z,48.90
2024-02-27T22:27:39.475Z,46.70
2024-02-27T22:30:10.720Z,49.80
2024-02-27T22:32:39.467Z,46.40
2024-02-27T22:35:09.099Z,45.10
2024-02-27T22:37:41.428Z,51.50
2024-02-27T22:40:10.987Z,49.50
2024-02-27T22:42:39.633Z,53.20
2024-02-27T22:45:09.253Z,53.90
2024-02-27T22:47:37.977Z,55.00
2024-02-27T22:50:07.318Z,59.30
2024-02-27T22:52:35.843Z,64.90
2024-02-27T22:55:04.585Z,60.20
2024-02-27T22:57:33.137Z,68.40
2024-02-27T23:00:01.999Z,65.60
2024-02-27T23:02:30.851Z,68.20
2024-02-27T23:04:59.239Z,65.50
2024-02-27T23:07:28.111Z,66.60
2024-02-27T23:09:56.973Z,60.80
2024-02-27T23:12:25.501Z,51.70
2024-02-27T23:14:54.184Z,61.20
2024-02-27T23:17:24.222Z,60.30
2024-02-27T23:19:52.996Z,60.90
2024-02-27T23:22:21.685Z,62.60
2024-02-27T23:24:52.002Z,57.00
2024-02-27T23:27:22.165Z,58.80
2024-02-27T23:29:51.113Z,52.70
2024-02-27T23:32:19.599Z,59.60
2024-02-27T23:34:48.072Z,55.20
2024-02-27T23:37:16.647Z,54.50
2024-02-27T23:39:46.426Z,50.90
2024-02-27T23:42:15.199Z,56.20
2024-02-27T23:44:43.772Z,55.80
2024-02-27T23:47:13.649Z,55.70
2024-02-27T23:49:43.773Z,56.00
2024-02-27T23:52:12.396Z,56.10
2024-02-27T23:54:44.704Z,56.90
2024-02-27T23:57:13.664Z,54.80
2024-02-27T23:59:42.313Z,53.90
